sensor_id;sensor_type;location;lat;lon;timestamp;P1;durP1;ratioP1;P2;durP2;ratioP2
59571;SDS011;70118;45.638;11.714;2023-07-13T00:01:16;5.97;;;1.90;;
59571;SDS011;70118;45.638;11.714;2023-07-13T00:03:44;5.80;;;1.80;;
59571;SDS011;70118;45.638;11.714;2023-07-13T00:06:10;7.18;;;2.30;;
59571;SDS011;70118;45.638;11.714;2023-07-13T00:08:37;5.80;;;2.00;;
59571;SDS011;70118;45.638;11.714;2023-07-13T00:11:04;4.82;;;1.88;;
59571;SDS011;70118;45.638;11.714;2023-07-13T00:13:31;5.72;;;2.15;;
59571;SDS011;70118;45.638;11.714;2023-07-13T00:15:58;5.75;;;1.95;;
59571;SDS011;70118;45.638;11.714;2023-07-13T00:18:27;5.50;;;1.53;;
59571;SDS011;70118;45.638;11.714;2023-07-13T00:20:56;5.22;;;1.55;;
59571;SDS011;70118;45.638;11.714;2023-07-13T00:23:33;5.60;;;1.70;;
59571;SDS011;70118;45.638;11.714;2023-07-13T00:26:02;5.45;;;1.52;;
59571;SDS011;70118;45.638;11.714;2023-07-13T00:28:30;5.57;;;1.60;;
59571;SDS011;70118;45.638;11.714;2023-07-13T00:31:11;5.47;;;1.47;;
59571;SDS011;70118;45.638;11.714;2023-07-13T00:33:48;5.88;;;1.50;;
59571;SDS011;70118;45.638;11.714;2023-07-13T00:36:39;5.80;;;1.70;;
59571;SDS011;70118;45.638;11.714;2023-07-13T00:39:05;6.35;;;1.63;;
59571;SDS011;70118;45.638;11.714;2023-07-13T00:41:32;4.82;;;1.80;;
59571;SDS011;70118;45.638;11.714;2023-07-13T00:43:59;5.80;;;1.80;;
59571;SDS011;70118;45.638;11.714;2023-07-13T00:46:31;4.07;;;1.63;;
59571;SDS011;70118;45.638;11.714;2023-07-13T00:48:59;4.40;;;1.50;;
59571;SDS011;70118;45.638;11.714;2023-07-13T00:51:51;4.72;;;1.33;;
59571;SDS011;70118;45.638;11.714;2023-07-13T00:54:22;4.60;;;1.48;;
59571;SDS011;70118;45.638;11.714;2023-07-13T00:56:53;7.23;;;1.50;;
59571;SDS011;70118;45.638;11.714;2023-07-13T00:59:21;4.97;;;1.40;;
59571;SDS011;70118;45.638;11.714;2023-07-13T01:01:49;4.75;;;1.30;;
59571;SDS011;70118;45.638;11.714;2023-07-13T01:04:15;4.80;;;1.52;;
59571;SDS011;70118;45.638;11.714;2023-07-13T01:06:41;4.88;;;1.20;;
59571;SDS011;70118;45.638;11.714;2023-07-13T01:09:09;4.80;;;1.60;;
59571;SDS011;70118;45.638;11.714;2023-07-13T01:11:36;4.00;;;1.60;;
59571;SDS011;70118;45.638;11.714;2023-07-13T01:14:02;6.07;;;1.92;;
59571;SDS011;70118;45.638;11.714;2023-07-13T01:16:29;4.50;;;1.60;;
59571;SDS011;70118;45.638;11.714;2023-07-13T01:18:57;4.63;;;1.50;;
59571;SDS011;70118;45.638;11.714;2023-07-13T01:21:24;4.63;;;1.77;;
59571;SDS011;70118;45.638;11.714;2023-07-13T01:23:51;4.43;;;1.63;;
59571;SDS011;70118;45.638;11.714;2023-07-13T01:26:17;4.78;;;1.67;;
59571;SDS011;70118;45.638;11.714;2023-07-13T01:28:43;5.17;;;1.67;;
59571;SDS011;70118;45.638;11.714;2023-07-13T01:31:09;4.82;;;1.70;;
59571;SDS011;70118;45.638;11.714;2023-07-13T01:33:37;4.72;;;1.65;;
59571;SDS011;70118;45.638;11.714;2023-07-13T01:36:06;6.20;;;1.70;;
59571;SDS011;70118;45.638;11.714;2023-07-13T01:38:34;3.88;;;1.42;;
59571;SDS011;70118;45.638;11.714;2023-07-13T01:41:01;3.73;;;1.20;;
59571;SDS011;70118;45.638;11.714;2023-07-13T01:43:27;4.07;;;1.30;;
59571;SDS011;70118;45.638;11.714;2023-07-13T01:45:53;3.88;;;1.70;;
59571;SDS011;70118;45.638;11.714;2023-07-13T01:48:18;4.67;;;1.50;;
59571;SDS011;70118;45.638;11.714;2023-07-13T01:50:45;4.70;;;1.33;;
59571;SDS011;70118;45.638;11.714;2023-07-13T01:53:12;3.80;;;1.40;;
59571;SDS011;70118;45.638;11.714;2023-07-13T01:55:38;5.32;;;1.88;;
59571;SDS011;70118;45.638;11.714;2023-07-13T01:58:04;5.47;;;1.70;;
59571;SDS011;70118;45.638;11.714;2023-07-13T03:24:39;4.27;;;1.47;;
59571;SDS011;70118;45.638;11.714;2023-07-13T03:27:05;4.82;;;1.50;;
59571;SDS011;70118;45.638;11.714;2023-07-13T03:29:32;5.70;;;1.70;;
59571;SDS011;70118;45.638;11.714;2023-07-13T03:31:57;4.28;;;1.50;;
59571;SDS011;70118;45.638;11.714;2023-07-13T03:34:23;4.37;;;1.63;;
59571;SDS011;70118;45.638;11.714;2023-07-13T03:36:49;3.72;;;1.20;;
59571;SDS011;70118;45.638;11.714;2023-07-13T03:39:15;3.95;;;1.77;;
59571;SDS011;70118;45.638;11.714;2023-07-13T03:41:41;3.30;;;1.20;;
59571;SDS011;70118;45.638;11.714;2023-07-13T03:44:07;3.28;;;1.10;;
59571;SDS011;70118;45.638;11.714;2023-07-13T03:46:33;3.85;;;1.45;;
59571;SDS011;70118;45.638;11.714;2023-07-13T03:48:59;4.10;;;1.40;;
59571;SDS011;70118;45.638;11.714;2023-07-13T03:51:25;4.82;;;1.42;;
59571;SDS011;70118;45.638;11.714;2023-07-13T03:53:51;4.38;;;1.30;;
59571;SDS011;70118;45.638;11.714;2023-07-13T03:56:17;3.92;;;1.23;;
59571;SDS011;70118;45.638;11.714;2023-07-13T03:58:44;4.57;;;1.50;;
59571;SDS011;70118;45.638;11.714;2023-07-13T04:01:12;4.20;;;1.33;;
59571;SDS011;70118;45.638;11.714;2023-07-13T04:03:40;4.70;;;1.40;;
59571;SDS011;70118;45.638;11.714;2023-07-13T04:06:06;3.90;;;1.17;;
59571;SDS011;70118;45.638;11.714;2023-07-13T04:08:40;4.00;;;1.20;;
59571;SDS011;70118;45.638;11.714;2023-07-13T04:11:06;8.27;;;4.30;;
59571;SDS011;70118;45.638;11.714;2023-07-13T04:13:32;7.72;;;4.57;;
59571;SDS011;70118;45.638;11.714;2023-07-13T04:15:58;7.65;;;4.72;;
59571;SDS011;70118;45.638;11.714;2023-07-13T04:18:24;9.20;;;4.83;;
59571;SDS011;70118;45.638;11.714;2023-07-13T04:20:50;7.70;;;4.60;;
59571;SDS011;70118;45.638;11.714;2023-07-13T04:23:16;6.93;;;3.95;;
59571;SDS011;70118;45.638;11.714;2023-07-13T04:25:43;7.35;;;4.47;;
59571;SDS011;70118;45.638;11.714;2023-07-13T04:28:10;9.15;;;4.10;;
59571;SDS011;70118;45.638;11.714;2023-07-13T04:30:36;7.57;;;4.23;;
59571;SDS011;70118;45.638;11.714;2023-07-13T04:33:02;7.70;;;3.97;;
59571;SDS011;70118;45.638;11.714;2023-07-13T04:35:27;7.40;;;3.92;;
59571;SDS011;70118;45.638;11.714;2023-07-13T04:37:53;5.70;;;3.20;;
59571;SDS011;70118;45.638;11.714;2023-07-13T04:40:19;6.75;;;3.40;;
59571;SDS011;70118;45.638;11.714;2023-07-13T04:42:46;8.52;;;3.97;;
59571;SDS011;70118;45.638;11.714;2023-07-13T04:45:13;7.27;;;4.20;;
59571;SDS011;70118;45.638;11.714;2023-07-13T04:47:40;8.43;;;4.60;;
59571;SDS011;70118;45.638;11.714;2023-07-13T04:50:07;7.38;;;4.20;;
59571;SDS011;70118;45.638;11.714;2023-07-13T04:52:33;8.20;;;3.67;;
59571;SDS011;70118;45.638;11.714;2023-07-13T04:54:59;7.25;;;3.83;;
59571;SDS011;70118;45.638;11.714;2023-07-13T04:57:26;7.03;;;4.03;;
59571;SDS011;70118;45.638;11.714;2023-07-13T04:59:52;9.18;;;4.18;;
59571;SDS011;70118;45.638;11.714;2023-07-13T05:02:18;8.63;;;4.57;;
59571;SDS011;70118;45.638;11.714;2023-07-13T05:04:46;8.55;;;4.63;;
59571;SDS011;70118;45.638;11.714;2023-07-13T05:07:13;9.90;;;5.00;;
59571;SDS011;70118;45.638;11.714;2023-07-13T05:09:39;7.47;;;4.53;;
59571;SDS011;70118;45.638;11.714;2023-07-13T05:12:08;8.27;;;4.32;;
59571;SDS011;70118;45.638;11.714;2023-07-13T05:14:35;10.35;;;4.07;;
59571;SDS011;70118;45.638;11.714;2023-07-13T05:17:01;8.23;;;4.25;;
59571;SDS011;70118;45.638;11.714;2023-07-13T05:19:27;7.77;;;4.30;;
59571;SDS011;70118;45.638;11.714;2023-07-13T05:21:53;7.20;;;4.03;;
59571;SDS011;70118;45.638;11.714;2023-07-13T05:24:19;7.45;;;3.95;;
59571;SDS011;70118;45.638;11.714;2023-07-13T05:26:45;6.37;;;3.73;;
59571;SDS011;70118;45.638;11.714;2023-07-13T05:29:11;6.43;;;3.17;;
59571;SDS011;70118;45.638;11.714;2023-07-13T05:31:36;7.93;;;2.88;;
59571;SDS011;70118;45.638;11.714;2023-07-13T05:34:02;5.00;;;1.90;;
59571;SDS011;70118;45.638;11.714;2023-07-13T05:36:28;4.60;;;1.63;;
59571;SDS011;70118;45.638;11.714;2023-07-13T05:38:54;6.47;;;1.75;;
59571;SDS011;70118;45.638;11.714;2023-07-13T05:41:20;4.73;;;1.93;;
59571;SDS011;70118;45.638;11.714;2023-07-13T05:43:46;6.68;;;2.10;;
59571;SDS011;70118;45.638;11.714;2023-07-13T05:46:12;5.18;;;1.77;;
59571;SDS011;70118;45.638;11.714;2023-07-13T05:48:39;5.23;;;1.70;;
59571;SDS011;70118;45.638;11.714;2023-07-13T05:51:05;4.05;;;1.70;;
59571;SDS011;70118;45.638;11.714;2023-07-13T05:53:31;4.53;;;1.50;;
59571;SDS011;70118;45.638;11.714;2023-07-13T05:55:57;5.23;;;1.60;;
59571;SDS011;70118;45.638;11.714;2023-07-13T05:58:23;6.45;;;1.95;;
59571;SDS011;70118;45.638;11.714;2023-07-13T06:00:59;6.22;;;1.80;;
59571;SDS011;70118;45.638;11.714;2023-07-13T06:03:26;5.30;;;1.63;;
59571;SDS011;70118;45.638;11.714;2023-07-13T06:05:54;5.23;;;1.70;;
59571;SDS011;70118;45.638;11.714;2023-07-13T06:08:20;5.57;;;1.60;;
59571;SDS011;70118;45.638;11.714;2023-07-13T06:10:49;5.07;;;1.35;;
59571;SDS011;70118;45.638;11.714;2023-07-13T06:13:16;3.38;;;1.10;;
59571;SDS011;70118;45.638;11.714;2023-07-13T06:15:42;4.43;;;1.30;;
59571;SDS011;70118;45.638;11.714;2023-07-13T06:18:08;6.20;;;2.03;;
59571;SDS011;70118;45.638;11.714;2023-07-13T06:20:34;5.55;;;1.88;;
59571;SDS011;70118;45.638;11.714;2023-07-13T06:23:01;6.67;;;2.00;;
59571;SDS011;70118;45.638;11.714;2023-07-13T06:25:27;4.97;;;1.13;;
59571;SDS011;70118;45.638;11.714;2023-07-13T06:27:53;4.35;;;1.33;;
59571;SDS011;70118;45.638;11.714;2023-07-13T06:30:19;4.50;;;1.30;;
59571;SDS011;70118;45.638;11.714;2023-07-13T06:32:45;4.57;;;1.20;;
59571;SDS011;70118;45.638;11.714;2023-07-13T06:35:11;4.50;;;1.10;;
59571;SDS011;70118;45.638;11.714;2023-07-13T06:37:38;4.25;;;1.13;;
59571;SDS011;70118;45.638;11.714;2023-07-13T06:40:04;3.43;;;0.90;;
59571;SDS011;70118;45.638;11.714;2023-07-13T06:42:31;4.15;;;1.00;;
59571;SDS011;70118;45.638;11.714;2023-07-13T06:44:57;3.70;;;1.13;;
59571;SDS011;70118;45.638;11.714;2023-07-13T06:47:22;7.15;;;1.30;;
59571;SDS011;70118;45.638;11.714;2023-07-13T06:49:48;5.53;;;1.30;;
59571;SDS011;70118;45.638;11.714;2023-07-13T06:52:15;4.03;;;1.17;;
59571;SDS011;70118;45.638;11.714;2023-07-13T06:54:41;3.75;;;1.50;;
59571;SDS011;70118;45.638;11.714;2023-07-13T06:57:07;5.83;;;1.30;;
59571;SDS011;70118;45.638;11.714;2023-07-13T06:59:32;4.30;;;1.00;;
59571;SDS011;70118;45.638;11.714;2023-07-13T07:01:58;7.22;;;2.13;;
59571;SDS011;70118;45.638;11.714;2023-07-13T07:04:24;7.20;;;1.57;;
59571;SDS011;70118;45.638;11.714;2023-07-13T07:06:50;4.93;;;1.27;;
59571;SDS011;70118;45.638;11.714;2023-07-13T07:09:16;6.30;;;1.45;;
59571;SDS011;70118;45.638;11.714;2023-07-13T07:11:42;4.33;;;1.03;;
59571;SDS011;70118;45.638;11.714;2023-07-13T07:14:08;5.43;;;1.42;;
59571;SDS011;70118;45.638;11.714;2023-07-13T07:16:34;8.07;;;2.08;;
59571;SDS011;70118;45.638;11.714;2023-07-13T07:19:00;4.77;;;1.53;;
59571;SDS011;70118;45.638;11.714;2023-07-13T07:21:26;7.05;;;1.50;;
59571;SDS011;70118;45.638;11.714;2023-07-13T07:23:52;7.43;;;2.20;;
59571;SDS011;70118;45.638;11.714;2023-07-13T07:26:18;5.68;;;1.90;;
59571;SDS011;70118;45.638;11.714;2023-07-13T07:28:44;5.97;;;2.67;;
59571;SDS011;70118;45.638;11.714;2023-07-13T07:31:10;7.22;;;2.90;;
59571;SDS011;70118;45.638;11.714;2023-07-13T07:33:36;7.50;;;3.72;;
59571;SDS011;70118;45.638;11.714;2023-07-13T07:36:02;8.93;;;4.00;;
59571;SDS011;70118;45.638;11.714;2023-07-13T07:38:29;7.18;;;3.35;;
59571;SDS011;70118;45.638;11.714;2023-07-13T07:40:55;8.63;;;3.70;;
59571;SDS011;70118;45.638;11.714;2023-07-13T07:43:22;7.53;;;3.10;;
59571;SDS011;70118;45.638;11.714;2023-07-13T07:45:48;9.95;;;2.70;;
59571;SDS011;70118;45.638;11.714;2023-07-13T07:48:14;8.18;;;3.80;;
59571;SDS011;70118;45.638;11.714;2023-07-13T07:50:40;6.37;;;3.70;;
59571;SDS011;70118;45.638;11.714;2023-07-13T07:53:06;7.03;;;3.47;;
59571;SDS011;70118;45.638;11.714;2023-07-13T07:55:33;9.25;;;3.33;;
59571;SDS011;70118;45.638;11.714;2023-07-13T07:58:00;6.10;;;2.70;;
59571;SDS011;70118;45.638;11.714;2023-07-13T08:00:26;8.43;;;2.73;;
59571;SDS011;70118;45.638;11.714;2023-07-13T08:02:54;7.60;;;2.67;;
59571;SDS011;70118;45.638;11.714;2023-07-13T08:05:20;8.48;;;3.65;;
59571;SDS011;70118;45.638;11.714;2023-07-13T08:07:46;8.05;;;3.00;;
59571;SDS011;70118;45.638;11.714;2023-07-13T08:10:12;8.10;;;3.80;;
59571;SDS011;70118;45.638;11.714;2023-07-13T08:12:38;7.38;;;4.05;;
59571;SDS011;70118;45.638;11.714;2023-07-13T08:15:06;7.97;;;3.08;;
59571;SDS011;70118;45.638;11.714;2023-07-13T08:17:35;7.13;;;3.23;;
59571;SDS011;70118;45.638;11.714;2023-07-13T08:20:01;6.97;;;3.03;;
59571;SDS011;70118;45.638;11.714;2023-07-13T08:22:27;7.18;;;3.10;;
59571;SDS011;70118;45.638;11.714;2023-07-13T08:24:52;7.35;;;3.70;;
59571;SDS011;70118;45.638;11.714;2023-07-13T08:27:21;6.70;;;3.05;;
59571;SDS011;70118;45.638;11.714;2023-07-13T08:29:52;7.20;;;2.97;;
59571;SDS011;70118;45.638;11.714;2023-07-13T08:32:19;7.28;;;3.15;;
59571;SDS011;70118;45.638;11.714;2023-07-13T08:34:45;5.88;;;3.00;;
59571;SDS011;70118;45.638;11.714;2023-07-13T08:37:12;8.40;;;3.58;;
59571;SDS011;70118;45.638;11.714;2023-07-13T08:39:38;9.00;;;3.90;;
59571;SDS011;70118;45.638;11.714;2023-07-13T08:42:10;7.77;;;3.60;;
59571;SDS011;70118;45.638;11.714;2023-07-13T08:44:40;7.65;;;3.80;;
59571;SDS011;70118;45.638;11.714;2023-07-13T08:47:28;6.47;;;3.67;;
59571;SDS011;70118;45.638;11.714;2023-07-13T08:49:58;5.70;;;3.35;;
59571;SDS011;70118;45.638;11.714;2023-07-13T08:54:58;5.78;;;3.13;;
59571;SDS011;70118;45.638;11.714;2023-07-13T08:57:34;7.28;;;3.70;;
59571;SDS011;70118;45.638;11.714;2023-07-13T09:00:01;11.70;;;4.30;;
59571;SDS011;70118;45.638;11.714;2023-07-13T09:05:17;7.07;;;4.07;;
59571;SDS011;70118;45.638;11.714;2023-07-13T09:10:44;7.25;;;4.18;;
59571;SDS011;70118;45.638;11.714;2023-07-13T09:16:00;11.68;;;5.03;;
59571;SDS011;70118;45.638;11.714;2023-07-13T09:18:36;9.17;;;5.00;;
59571;SDS011;70118;45.638;11.714;2023-07-13T09:21:17;9.35;;;4.85;;
59571;SDS011;70118;45.638;11.714;2023-07-13T09:23:43;7.57;;;5.20;;
59571;SDS011;70118;45.638;11.714;2023-07-13T09:26:19;10.20;;;4.95;;
59571;SDS011;70118;45.638;11.714;2023-07-13T09:28:51;8.70;;;3.87;;
59571;SDS011;70118;45.638;11.714;2023-07-13T09:31:38;8.38;;;4.30;;
59571;SDS011;70118;45.638;11.714;2023-07-13T09:34:11;8.27;;;4.10;;
59571;SDS011;70118;45.638;11.714;2023-07-13T09:36:39;9.13;;;4.57;;
59571;SDS011;70118;45.638;11.714;2023-07-13T09:39:10;7.68;;;4.68;;
59571;SDS011;70118;45.638;11.714;2023-07-13T09:42:07;8.40;;;4.33;;
59571;SDS011;70118;45.638;11.714;2023-07-13T09:44:51;7.97;;;4.60;;
59571;SDS011;70118;45.638;11.714;2023-07-13T09:47:20;6.57;;;3.75;;
59571;SDS011;70118;45.638;11.714;2023-07-13T09:49:59;6.97;;;3.58;;
59571;SDS011;70118;45.638;11.714;2023-07-13T09:52:26;7.93;;;3.75;;
59571;SDS011;70118;45.638;11.714;2023-07-13T09:55:04;6.90;;;3.53;;
59571;SDS011;70118;45.638;11.714;2023-07-13T09:57:47;7.13;;;3.38;;
59571;SDS011;70118;45.638;11.714;2023-07-13T10:00:20;7.72;;;4.57;;
59571;SDS011;70118;45.638;11.714;2023-07-13T10:03:03;8.20;;;5.05;;
59571;SDS011;70118;45.638;11.714;2023-07-13T10:05:43;12.63;;;5.30;;
59571;SDS011;70118;45.638;11.714;2023-07-13T10:08:16;10.03;;;4.77;;
59571;SDS011;70118;45.638;11.714;2023-07-13T10:10:43;7.13;;;3.50;;
59571;SDS011;70118;45.638;11.714;2023-07-13T10:13:26;9.25;;;4.80;;
59571;SDS011;70118;45.638;11.714;2023-07-13T10:16:06;8.25;;;4.68;;
59571;SDS011;70118;45.638;11.714;2023-07-13T10:18:38;9.65;;;4.65;;
59571;SDS011;70118;45.638;11.714;2023-07-13T10:21:19;7.40;;;3.80;;
59571;SDS011;70118;45.638;11.714;2023-07-13T10:23:47;7.35;;;3.30;;
59571;SDS011;70118;45.638;11.714;2023-07-13T10:26:23;7.32;;;3.42;;
59571;SDS011;70118;45.638;11.714;2023-07-13T10:28:55;7.63;;;3.75;;
59571;SDS011;70118;45.638;11.714;2023-07-13T10:31:24;8.20;;;3.30;;
59571;SDS011;70118;45.638;11.714;2023-07-13T10:33:50;7.10;;;3.20;;
59571;SDS011;70118;45.638;11.714;2023-07-13T10:36:33;5.63;;;3.20;;
59571;SDS011;70118;45.638;11.714;2023-07-13T10:39:04;8.43;;;3.38;;
59571;SDS011;70118;45.638;11.714;2023-07-13T10:41:33;6.47;;;3.08;;
59571;SDS011;70118;45.638;11.714;2023-07-13T10:44:02;6.45;;;3.45;;
59571;SDS011;70118;45.638;11.714;2023-07-13T10:46:29;7.10;;;3.37;;
59571;SDS011;70118;45.638;11.714;2023-07-13T10:49:00;5.90;;;3.03;;
59571;SDS011;70118;45.638;11.714;2023-07-13T10:51:29;6.75;;;2.22;;
59571;SDS011;70118;45.638;11.714;2023-07-13T10:54:10;4.95;;;2.08;;
59571;SDS011;70118;45.638;11.714;2023-07-13T10:56:41;4.95;;;1.90;;
59571;SDS011;70118;45.638;11.714;2023-07-13T10:59:18;4.77;;;2.00;;
59571;SDS011;70118;45.638;11.714;2023-07-13T11:01:58;4.93;;;2.53;;
59571;SDS011;70118;45.638;11.714;2023-07-13T11:04:46;6.50;;;2.83;;
59571;SDS011;70118;45.638;11.714;2023-07-13T11:07:23;6.05;;;2.17;;
59571;SDS011;70118;45.638;11.714;2023-07-13T11:09:52;5.00;;;2.42;;
59571;SDS011;70118;45.638;11.714;2023-07-13T11:20:40;4.45;;;1.60;;
59571;SDS011;70118;45.638;11.714;2023-07-13T11:30:39;5.93;;;2.00;;
59571;SDS011;70118;45.638;11.714;2023-07-13T11:38:37;6.35;;;1.85;;
59571;SDS011;70118;45.638;11.714;2023-07-13T11:41:10;4.05;;;1.60;;
59571;SDS011;70118;45.638;11.714;2023-07-13T11:43:40;5.47;;;1.77;;
59571;SDS011;70118;45.638;11.714;2023-07-13T11:46:19;6.35;;;1.90;;
59571;SDS011;70118;45.638;11.714;2023-07-13T11:48:51;4.77;;;1.77;;
59571;SDS011;70118;45.638;11.714;2023-07-13T11:51:32;4.85;;;1.60;;
59571;SDS011;70118;45.638;11.714;2023-07-13T11:54:13;4.50;;;1.38;;
59571;SDS011;70118;45.638;11.714;2023-07-13T11:56:44;4.57;;;1.85;;
59571;SDS011;70118;45.638;11.714;2023-07-13T11:59:11;4.20;;;1.70;;
59571;SDS011;70118;45.638;11.714;2023-07-13T12:01:43;4.37;;;1.40;;
59571;SDS011;70118;45.638;11.714;2023-07-13T12:04:33;3.65;;;1.30;;
59571;SDS011;70118;45.638;11.714;2023-07-13T12:07:06;7.72;;;1.40;;
59571;SDS011;70118;45.638;11.714;2023-07-13T12:09:39;5.55;;;1.60;;
59571;SDS011;70118;45.638;11.714;2023-07-13T12:12:13;3.38;;;1.35;;
59571;SDS011;70118;45.638;11.714;2023-07-13T12:14:43;4.10;;;1.20;;
59571;SDS011;70118;45.638;11.714;2023-07-13T12:17:19;5.05;;;1.60;;
59571;SDS011;70118;45.638;11.714;2023-07-13T12:19:47;3.72;;;1.30;;
59571;SDS011;70118;45.638;11.714;2023-07-13T12:22:14;3.45;;;1.30;;
59571;SDS011;70118;45.638;11.714;2023-07-13T12:24:43;4.63;;;1.48;;
59571;SDS011;70118;45.638;11.714;2023-07-13T12:30:04;5.85;;;1.40;;
59571;SDS011;70118;45.638;11.714;2023-07-13T12:32:54;3.80;;;1.40;;
59571;SDS011;70118;45.638;11.714;2023-07-13T12:35:39;3.65;;;1.35;;
59571;SDS011;70118;45.638;11.714;2023-07-13T12:38:17;3.47;;;1.13;;
59571;SDS011;70118;45.638;11.714;2023-07-13T12:40:48;3.57;;;1.17;;
59571;SDS011;70118;45.638;11.714;2023-07-13T12:43:16;3.63;;;1.33;;
59571;SDS011;70118;45.638;11.714;2023-07-13T12:46:01;3.10;;;0.90;;
59571;SDS011;70118;45.638;11.714;2023-07-13T12:48:41;3.75;;;1.10;;
59571;SDS011;70118;45.638;11.714;2023-07-13T12:51:11;3.38;;;1.20;;
59571;SDS011;70118;45.638;11.714;2023-07-13T12:53:40;4.03;;;1.20;;
59571;SDS011;70118;45.638;11.714;2023-07-13T12:56:15;4.43;;;1.52;;
59571;SDS011;70118;45.638;11.714;2023-07-13T12:58:45;4.25;;;1.40;;
59571;SDS011;70118;45.638;11.714;2023-07-13T13:01:14;4.05;;;1.50;;
59571;SDS011;70118;45.638;11.714;2023-07-13T13:03:49;3.83;;;1.13;;
59571;SDS011;70118;45.638;11.714;2023-07-13T13:08:48;3.80;;;1.25;;
59571;SDS011;70118;45.638;11.714;2023-07-13T13:11:16;3.67;;;1.23;;
59571;SDS011;70118;45.638;11.714;2023-07-13T13:13:42;3.60;;;1.30;;
59571;SDS011;70118;45.638;11.714;2023-07-13T13:16:14;3.53;;;1.08;;
59571;SDS011;70118;45.638;11.714;2023-07-13T13:18:47;3.50;;;1.10;;
59571;SDS011;70118;45.638;11.714;2023-07-13T13:21:15;4.20;;;1.05;;
59571;SDS011;70118;45.638;11.714;2023-07-13T13:23:41;3.45;;;1.17;;
59571;SDS011;70118;45.638;11.714;2023-07-13T13:26:10;3.53;;;1.27;;
59571;SDS011;70118;45.638;11.714;2023-07-13T13:28:38;3.30;;;1.20;;
59571;SDS011;70118;45.638;11.714;2023-07-13T13:31:04;3.40;;;1.20;;
59571;SDS011;70118;45.638;11.714;2023-07-13T13:33:29;4.00;;;1.27;;
59571;SDS011;70118;45.638;11.714;2023-07-13T13:35:56;3.63;;;1.17;;
59571;SDS011;70118;45.638;11.714;2023-07-13T13:38:26;3.10;;;1.10;;
59571;SDS011;70118;45.638;11.714;2023-07-13T13:40:53;4.35;;;1.20;;
59571;SDS011;70118;45.638;11.714;2023-07-13T13:43:21;3.38;;;1.00;;
59571;SDS011;70118;45.638;11.714;2023-07-13T13:45:57;3.00;;;1.00;;
59571;SDS011;70118;45.638;11.714;2023-07-13T13:48:32;3.17;;;0.93;;
59571;SDS011;70118;45.638;11.714;2023-07-13T13:51:00;3.33;;;0.77;;
59571;SDS011;70118;45.638;11.714;2023-07-13T13:53:33;3.60;;;1.02;;
59571;SDS011;70118;45.638;11.714;2023-07-13T13:56:06;3.83;;;1.10;;
59571;SDS011;70118;45.638;11.714;2023-07-13T13:58:32;3.55;;;1.05;;
59571;SDS011;70118;45.638;11.714;2023-07-13T14:00:59;3.10;;;1.10;;
59571;SDS011;70118;45.638;11.714;2023-07-13T14:03:26;3.35;;;1.00;;
59571;SDS011;70118;45.638;11.714;2023-07-13T14:05:53;3.58;;;1.00;;
59571;SDS011;70118;45.638;11.714;2023-07-13T14:08:20;4.28;;;1.10;;
59571;SDS011;70118;45.638;11.714;2023-07-13T14:10:48;3.28;;;0.80;;
59571;SDS011;70118;45.638;11.714;2023-07-13T14:13:37;3.30;;;0.90;;
59571;SDS011;70118;45.638;11.714;2023-07-13T14:16:11;3.42;;;1.13;;
59571;SDS011;70118;45.638;11.714;2023-07-13T14:18:40;3.35;;;1.00;;
59571;SDS011;70118;45.638;11.714;2023-07-13T14:21:11;3.05;;;0.85;;
59571;SDS011;70118;45.638;11.714;2023-07-13T14:23:43;3.00;;;0.77;;
59571;SDS011;70118;45.638;11.714;2023-07-13T14:26:10;3.40;;;1.00;;
59571;SDS011;70118;45.638;11.714;2023-07-13T14:28:38;3.55;;;0.90;;
59571;SDS011;70118;45.638;11.714;2023-07-13T14:31:08;3.25;;;1.27;;
59571;SDS011;70118;45.638;11.714;2023-07-13T14:33:34;3.40;;;0.80;;
59571;SDS011;70118;45.638;11.714;2023-07-13T14:36:01;3.70;;;1.20;;
59571;SDS011;70118;45.638;11.714;2023-07-13T14:38:28;3.00;;;1.05;;
59571;SDS011;70118;45.638;11.714;2023-07-13T14:40:55;2.90;;;1.10;;
59571;SDS011;70118;45.638;11.714;2023-07-13T14:43:21;4.05;;;1.10;;
59571;SDS011;70118;45.638;11.714;2023-07-13T14:45:49;3.13;;;0.90;;
59571;SDS011;70118;45.638;11.714;2023-07-13T14:48:18;3.10;;;0.97;;
59571;SDS011;70118;45.638;11.714;2023-07-13T14:50:50;3.95;;;1.13;;
59571;SDS011;70118;45.638;11.714;2023-07-13T14:53:22;4.57;;;1.38;;
59571;SDS011;70118;45.638;11.714;2023-07-13T14:55:48;3.67;;;1.10;;
59571;SDS011;70118;45.638;11.714;2023-07-13T14:58:14;4.72;;;1.40;;
59571;SDS011;70118;45.638;11.714;2023-07-13T15:00:40;5.67;;;1.30;;
59571;SDS011;70118;45.638;11.714;2023-07-13T15:03:08;3.08;;;0.98;;
59571;SDS011;70118;45.638;11.714;2023-07-13T15:05:46;3.28;;;1.00;;
59571;SDS011;70118;45.638;11.714;2023-07-13T15:08:13;4.30;;;1.30;;
59571;SDS011;70118;45.638;11.714;2023-07-13T15:10:40;4.00;;;1.10;;
59571;SDS011;70118;45.638;11.714;2023-07-13T15:13:13;5.00;;;1.27;;
59571;SDS011;70118;45.638;11.714;2023-07-13T15:15:50;3.20;;;0.88;;
59571;SDS011;70118;45.638;11.714;2023-07-13T15:18:18;2.70;;;0.90;;
59571;SDS011;70118;45.638;11.714;2023-07-13T15:20:47;3.55;;;0.88;;
59571;SDS011;70118;45.638;11.714;2023-07-13T15:23:15;3.73;;;1.00;;
59571;SDS011;70118;45.638;11.714;2023-07-13T15:25:42;2.85;;;1.00;;
59571;SDS011;70118;45.638;11.714;2023-07-13T15:28:09;3.67;;;0.93;;
59571;SDS011;70118;45.638;11.714;2023-07-13T15:30:38;3.20;;;1.10;;
59571;SDS011;70118;45.638;11.714;2023-07-13T15:33:13;3.13;;;0.73;;
59571;SDS011;70118;45.638;11.714;2023-07-13T15:35:39;3.20;;;1.10;;
59571;SDS011;70118;45.638;11.714;2023-07-13T15:38:14;3.00;;;0.95;;
59571;SDS011;70118;45.638;11.714;2023-07-13T15:40:42;4.20;;;1.00;;
59571;SDS011;70118;45.638;11.714;2023-07-13T15:43:11;4.05;;;0.98;;
59571;SDS011;70118;45.638;11.714;2023-07-13T15:45:39;5.07;;;1.17;;
59571;SDS011;70118;45.638;11.714;2023-07-13T15:50:46;6.30;;;1.67;;
59571;SDS011;70118;45.638;11.714;2023-07-13T15:53:24;8.38;;;2.20;;
59571;SDS011;70118;45.638;11.714;2023-07-13T15:55:53;7.30;;;2.10;;
59571;SDS011;70118;45.638;11.714;2023-07-13T15:58:20;6.20;;;1.80;;
59571;SDS011;70118;45.638;11.714;2023-07-13T16:00:46;8.03;;;1.83;;
59571;SDS011;70118;45.638;11.714;2023-07-13T16:03:15;5.82;;;1.70;;
59571;SDS011;70118;45.638;11.714;2023-07-13T16:05:41;6.35;;;1.85;;
59571;SDS011;70118;45.638;11.714;2023-07-13T16:08:09;6.20;;;1.90;;
59571;SDS011;70118;45.638;11.714;2023-07-13T16:10:47;6.90;;;1.85;;
59571;SDS011;70118;45.638;11.714;2023-07-13T16:13:13;6.35;;;2.30;;
59571;SDS011;70118;45.638;11.714;2023-07-13T16:15:40;5.57;;;1.80;;
59571;SDS011;70118;45.638;11.714;2023-07-13T16:18:13;5.70;;;1.93;;
59571;SDS011;70118;45.638;11.714;2023-07-13T16:20:42;5.82;;;1.83;;
59571;SDS011;70118;45.638;11.714;2023-07-13T16:23:12;6.63;;;1.92;;
59571;SDS011;70118;45.638;11.714;2023-07-13T16:25:40;4.70;;;1.50;;
59571;SDS011;70118;45.638;11.714;2023-07-13T16:28:06;4.63;;;1.70;;
59571;SDS011;70118;45.638;11.714;2023-07-13T16:30:34;4.50;;;1.37;;
59571;SDS011;70118;45.638;11.714;2023-07-13T16:33:00;5.53;;;1.42;;
59571;SDS011;70118;45.638;11.714;2023-07-13T16:35:30;4.82;;;1.52;;
59571;SDS011;70118;45.638;11.714;2023-07-13T16:38:08;3.60;;;1.25;;
59571;SDS011;70118;45.638;11.714;2023-07-13T16:40:43;4.35;;;1.33;;
59571;SDS011;70118;45.638;11.714;2023-07-13T16:43:13;3.87;;;1.40;;
59571;SDS011;70118;45.638;11.714;2023-07-13T16:45:42;5.28;;;1.52;;
59571;SDS011;70118;45.638;11.714;2023-07-13T16:48:13;4.32;;;1.33;;
59571;SDS011;70118;45.638;11.714;2023-07-13T16:50:41;4.18;;;1.73;;